Time;durP1;ratioP1;P1;durP2;ratioP2;P2;SDS_P1;SDS_P2;PMS_P1;PMS_P2;Temp;Humidity;BMP_temperature;BMP_pressure;BME280_temperature;BME280_humidity;BME280_pressure;Samples;Min_cycle;Max_cycle;Signal;HPM_P1;HPM_P2
2020/12/27 00:01:07;;;;;;;4.83;3.77;;;-2.50;99.90;;;;;;5076886;28;20841;-49
2020/12/27 00:03:34;;;;;;;7.17;4.10;;;-2.40;99.90;;;;;;5069388;28;20953;-49
2020/12/27 00:06:00;;;;;;;4.77;3.40;;;-2.40;99.90;;;;;;5068832;28;20463;-49
2020/12/27 00:08:26;;;;;;;6.57;3.77;;;-2.30;99.90;;;;;;5063930;28;20460;-49
2020/12/27 00:10:54;;;;;;;5.57;3.50;;;-2.40;99.90;;;;;;5068701;28;20463;-49
2020/12/27 00:13:20;;;;;;;6.70;3.40;;;-2.50;99.90;;;;;;5061720;28;20448;-49
2020/12/27 00:15:47;;;;;;;5.70;3.60;;;-2.40;99.90;;;;;;5067855;28;20896;-50
2020/12/27 00:18:13;;;;;;;16.00;6.87;;;-2.50;99.90;;;;;;5069162;28;20490;-49
2020/12/27 00:20:40;;;;;;;34.67;13.70;;;-2.40;99.90;;;;;;5068975;28;20447;-49
2020/12/27 00:23:06;;;;;;;19.67;8.33;;;-2.30;99.90;;;;;;5069535;28;20462;-50
2020/12/27 00:25:37;;;;;;;5.30;3.47;;;-2.60;99.90;;;;;;5068700;28;20486;-50
2020/12/27 00:28:04;;;;;;;6.83;4.03;;;-2.70;99.90;;;;;;5069362;28;20984;-50
2020/12/27 00:30:31;;;;;;;7.60;3.47;;;-2.50;99.90;;;;;;5062681;28;20468;-50
2020/12/27 00:32:57;;;;;;;7.53;3.77;;;-2.30;99.90;;;;;;5069460;28;21268;-49
2020/12/27 00:35:24;;;;;;;7.80;4.10;;;-2.40;99.90;;;;;;5068284;28;20486;-50
2020/12/27 00:37:50;;;;;;;8.90;5.10;;;-2.40;99.90;;;;;;5069837;28;20486;-49
2020/12/27 00:40:17;;;;;;;9.00;4.60;;;-2.30;99.90;;;;;;5072752;28;20462;-49
2020/12/27 00:42:43;;;;;;;11.17;4.80;;;-2.20;99.90;;;;;;5073365;28;20453;-49
2020/12/27 00:45:10;;;;;;;7.70;4.30;;;-2.20;99.90;;;;;;5068977;28;20915;-50
2020/12/27 00:47:37;;;;;;;11.77;6.10;;;-2.20;99.90;;;;;;5071939;28;20483;-49
2020/12/27 00:50:03;;;;;;;13.33;5.60;;;-2.50;99.90;;;;;;5073172;28;20454;-50
2020/12/27 00:52:30;;;;;;;13.90;6.40;;;-2.50;99.90;;;;;;5072159;28;20462;-49
2020/12/27 00:54:56;;;;;;;12.37;6.07;;;-2.40;99.90;;;;;;5072321;28;20490;-49
2020/12/27 00:57:23;;;;;;;15.07;5.70;;;-2.40;99.90;;;;;;5072641;28;20532;-50
2020/12/27 00:59:49;;;;;;;12.70;6.07;;;-2.40;99.90;;;;;;5069367;28;20469;-49
2020/12/27 01:02:17;;;;;;;12.17;6.03;;;-2.30;99.90;;;;;;5072810;28;20461;-50
2020/12/27 01:04:43;;;;;;;7.80;4.20;;;-2.30;99.90;;;;;;5072696;28;20475;-49
2020/12/27 01:07:10;;;;;;;9.73;5.10;;;-2.70;99.90;;;;;;5072788;28;20459;-50
2020/12/27 01:09:36;;;;;;;8.37;4.63;;;-2.90;99.90;;;;;;5068070;28;20488;-50
2020/12/27 01:12:03;;;;;;;7.37;4.70;;;-2.70;99.90;;;;;;5072183;28;20516;-49
2020/12/27 01:14:29;;;;;;;7.70;4.67;;;-2.60;99.90;;;;;;5071090;28;20482;-50
2020/12/27 01:16:56;;;;;;;5.83;3.57;;;-2.60;99.90;;;;;;5070810;28;20532;-49
2020/12/27 01:19:23;;;;;;;6.77;3.80;;;-2.50;99.90;;;;;;5072078;28;20881;-49
2020/12/27 01:21:50;;;;;;;6.23;3.77;;;-2.40;99.90;;;;;;5071102;28;20463;-50
2020/12/27 01:24:16;;;;;;;5.13;3.53;;;-2.40;99.90;;;;;;5070787;28;20488;-50
2020/12/27 01:26:43;;;;;;;5.90;3.60;;;-2.50;99.90;;;;;;5072333;28;20454;-50
2020/12/27 01:29:09;;;;;;;6.23;3.83;;;-2.50;99.90;;;;;;5071558;28;20465;-50
2020/12/27 01:31:36;;;;;;;6.90;3.77;;;-2.50;99.90;;;;;;5070216;28;20516;-49
2020/12/27 01:34:02;;;;;;;5.47;3.67;;;-2.60;99.90;;;;;;5071801;28;20479;-50
2020/12/27 01:36:31;;;;;;;8.00;3.50;;;-2.70;99.90;;;;;;5070887;28;20448;-49
2020/12/27 01:39:04;;;;;;;6.13;3.87;;;-2.60;99.90;;;;;;5070603;28;20479;-50
2020/12/27 01:41:31;;;;;;;5.47;3.67;;;-2.60;99.90;;;;;;5071884;28;20506;-50
2020/12/27 01:44:08;;;;;;;7.60;3.73;;;-2.60;99.90;;;;;;5071900;28;20446;-49
2020/12/27 01:46:37;;;;;;;5.30;2.93;;;-2.70;99.90;;;;;;5072115;28;20823;-50
2020/12/27 01:49:05;;;;;;;4.80;3.20;;;-2.70;99.90;;;;;;5071522;28;20443;-49
2020/12/27 01:51:32;;;;;;;4.07;2.77;;;-2.70;99.90;;;;;;5071604;28;20447;-49
2020/12/27 01:53:59;;;;;;;4.90;2.73;;;-2.70;99.90;;;;;;5071228;28;20474;-50
2020/12/27 01:56:31;;;;;;;5.57;2.83;;;-2.70;99.90;;;;;;5071826;28;22303;-49
2020/12/27 01:59:06;;;;;;;3.83;2.50;;;-2.70;99.90;;;;;;5071947;28;20483;-50
2020/12/27 02:01:33;;;;;;;3.83;2.40;;;-2.70;99.90;;;;;;5072366;28;20454;-50
2020/12/27 02:04:06;;;;;;;4.77;3.07;;;-2.70;99.90;;;;;;5072461;28;20831;-49
2020/12/27 02:06:34;;;;;;;4.40;2.70;;;-2.70;99.90;;;;;;5067803;28;20481;-49
2020/12/27 02:09:00;;;;;;;4.40;3.10;;;-2.80;99.90;;;;;;5071275;28;20514;-49
2020/12/27 02:11:27;;;;;;;5.87;3.40;;;-2.90;99.90;;;;;;5071564;28;20446;-49
2020/12/27 02:13:56;;;;;;;6.70;3.07;;;-3.00;99.90;;;;;;5072121;28;20463;-49
2020/12/27 02:16:24;;;;;;;5.77;3.07;;;-2.90;99.90;;;;;;5070731;28;20549;-49
2020/12/27 02:18:51;;;;;;;3.90;2.80;;;-2.90;99.90;;;;;;5067016;28;20487;-51
2020/12/27 02:21:18;;;;;;;4.07;2.80;;;-2.90;99.90;;;;;;5068747;28;20977;-49
2020/12/27 02:23:46;;;;;;;5.20;2.83;;;-2.80;99.90;;;;;;5070939;28;20447;-49
2020/12/27 02:26:14;;;;;;;4.67;3.30;;;-2.70;99.90;;;;;;5065027;28;20539;-49
2020/12/27 02:28:41;;;;;;;4.83;3.07;;;-2.70;99.90;;;;;;5067346;28;20530;-49
2020/12/27 02:31:07;;;;;;;4.27;2.97;;;-2.70;99.90;;;;;;5066603;28;21022;-50
2020/12/27 02:33:34;;;;;;;5.00;3.07;;;-2.70;99.90;;;;;;5068894;28;20443;-50
2020/12/27 02:36:00;;;;;;;6.40;3.83;;;-3.00;99.90;;;;;;5071659;28;20455;-50
2020/12/27 02:38:27;;;;;;;4.67;3.07;;;-2.90;99.90;;;;;;5070601;28;20486;-49
2020/12/27 02:40:53;;;;;;;7.93;3.73;;;-2.90;99.90;;;;;;5069036;28;20451;-50
2020/12/27 02:43:21;;;;;;;13.43;4.37;;;-3.10;99.90;;;;;;5070723;28;20446;-50
2020/12/27 02:45:48;;;;;;;7.90;3.57;;;-3.30;99.90;;;;;;5070971;28;20984;-49
2020/12/27 02:48:15;;;;;;;6.50;3.67;;;-3.40;99.90;;;;;;5070246;28;20865;-50
2020/12/27 02:50:42;;;;;;;15.27;5.00;;;-3.50;99.90;;;;;;5071120;28;20460;-50
2020/12/27 02:53:48;;;;;;;12.50;4.70;;;-3.60;99.90;;;;;;5062605;28;20458;-49
2020/12/27 02:56:14;;;;;;;9.33;3.90;;;-3.60;99.90;;;;;;5063534;28;20455;-50
2020/12/27 02:58:42;;;;;;;6.37;3.30;;;-3.50;99.90;;;;;;5070494;28;20478;-50
2020/12/27 03:01:08;;;;;;;6.40;3.53;;;-3.50;99.90;;;;;;5070009;28;20455;-50
2020/12/27 03:03:35;;;;;;;8.80;2.93;;;-3.40;99.90;;;;;;5070181;28;20496;-50
2020/12/27 03:06:01;;;;;;;7.00;2.70;;;-3.40;99.90;;;;;;5070702;28;20454;-49
2020/12/27 03:08:28;;;;;;;5.40;2.67;;;-3.40;99.90;;;;;;5070650;28;20443;-50
2020/12/27 03:10:54;;;;;;;7.97;3.37;;;-3.30;99.90;;;;;;5070485;28;20451;-50
2020/12/27 03:13:21;;;;;;;7.70;3.20;;;-3.50;99.90;;;;;;5070607;28;20451;-50
2020/12/27 03:15:51;;;;;;;6.30;3.10;;;-3.60;99.90;;;;;;5070478;28;20543;-50
2020/12/27 03:18:17;;;;;;;4.23;2.67;;;-3.60;99.90;;;;;;5069837;28;20478;-50
2020/12/27 03:20:44;;;;;;;5.03;3.10;;;-3.70;99.90;;;;;;5070495;28;20447;-50
2020/12/27 03:23:11;;;;;;;7.87;3.33;;;-3.80;99.90;;;;;;5070497;28;20786;-49
2020/12/27 03:25:37;;;;;;;8.73;3.17;;;-3.80;99.90;;;;;;5070002;28;20524;-50
2020/12/27 03:28:04;;;;;;;5.17;3.13;;;-3.70;99.90;;;;;;5070415;28;20439;-50
2020/12/27 03:30:31;;;;;;;4.57;2.77;;;-3.70;99.90;;;;;;5069622;28;20961;-49
2020/12/27 03:32:58;;;;;;;4.90;2.60;;;-3.70;99.90;;;;;;5070449;28;20831;-49
2020/12/27 03:35:25;;;;;;;4.80;2.30;;;-3.70;99.90;;;;;;5070416;28;20471;-49
2020/12/27 03:37:52;;;;;;;5.23;3.00;;;-3.60;99.90;;;;;;5062014;28;20561;-50
2020/12/27 03:40:19;;;;;;;3.97;2.50;;;-3.50;99.90;;;;;;5070294;28;20442;-50
2020/12/27 03:42:45;;;;;;;3.60;2.10;;;-3.40;99.90;;;;;;5069605;28;20461;-49
2020/12/27 03:45:12;;;;;;;5.80;2.40;;;-3.40;99.90;;;;;;5070510;28;20477;-50
2020/12/27 03:47:38;;;;;;;2.80;2.10;;;-3.40;99.90;;;;;;5069904;28;20451;-50
2020/12/27 03:50:06;;;;;;;6.97;2.40;;;-3.30;99.90;;;;;;5070118;28;20835;-50
2020/12/27 03:52:32;;;;;;;5.53;2.83;;;-3.30;99.90;;;;;;5069531;28;20968;-50
2020/12/27 03:54:59;;;;;;;4.33;2.50;;;-3.30;99.90;;;;;;5069915;28;20489;-50
2020/12/27 03:57:25;;;;;;;3.67;2.13;;;-3.30;99.90;;;;;;5070010;28;20447;-50
2020/12/27 03:59:52;;;;;;;3.23;2.50;;;-3.50;99.90;;;;;;5070098;28;20443;-50
2020/12/27 04:02:18;;;;;;;3.37;2.50;;;-3.50;99.90;;;;;;5069464;28;20443;-50
2020/12/27 04:04:45;;;;;;;4.67;2.27;;;-3.50;99.90;;;;;;5070141;28;20449;-50
2020/12/27 04:07:12;;;;;;;3.03;2.33;;;-3.50;99.90;;;;;;5069459;28;20832;-50
2020/12/27 04:09:38;;;;;;;2.60;1.67;;;-3.60;99.90;;;;;;5070057;28;20468;-49
2020/12/27 04:12:05;;;;;;;2.40;2.17;;;-3.50;99.90;;;;;;5070359;28;20455;-50
2020/12/27 04:14:31;;;;;;;5.57;2.57;;;-3.40;99.90;;;;;;5074462;28;20470;-49
2020/12/27 04:16:58;;;;;;;3.67;2.37;;;-3.50;99.90;;;;;;5074159;28;20451;-50
2020/12/27 04:19:24;;;;;;;1.93;1.70;;;-3.30;99.90;;;;;;5072944;28;20505;-50
2020/12/27 04:21:52;;;;;;;3.40;1.90;;;-3.30;99.90;;;;;;5074013;28;20455;-50
2020/12/27 04:24:19;;;;;;;3.20;1.90;;;-3.30;99.90;;;;;;5073708;28;20500;-49
2020/12/27 04:26:48;;;;;;;4.77;2.30;;;-3.40;99.90;;;;;;5074010;28;20455;-50
2020/12/27 04:29:14;;;;;;;2.90;2.20;;;-3.20;99.90;;;;;;5074009;28;20454;-50
2020/12/27 04:31:41;;;;;;;3.23;2.40;;;-3.30;99.90;;;;;;5073425;28;20459;-50
2020/12/27 04:34:07;;;;;;;4.27;2.40;;;-3.20;99.90;;;;;;5073561;28;20479;-50
2020/12/27 04:36:34;;;;;;;3.50;2.00;;;-3.10;99.90;;;;;;5068821;28;20545;-50
2020/12/27 04:39:02;;;;;;;4.03;2.10;;;-3.20;99.90;;;;;;5073021;28;20554;-50
2020/12/27 04:41:29;;;;;;;5.00;2.60;;;-3.40;99.90;;;;;;5073914;28;20446;-50
2020/12/27 04:43:57;;;;;;;5.40;2.50;;;-3.40;99.90;;;;;;5065425;28;20466;-49
2020/12/27 04:46:24;;;;;;;3.37;2.30;;;-3.40;99.90;;;;;;5072902;28;21006;-49
2020/12/27 04:48:53;;;;;;;4.40;2.17;;;-3.40;99.90;;;;;;5068770;28;20447;-50
2020/12/27 04:51:20;;;;;;;2.10;1.90;;;-3.40;99.90;;;;;;5071810;28;20450;-50
2020/12/27 04:53:49;;;;;;;4.33;2.10;;;-3.40;99.90;;;;;;5072847;28;20469;-50
2020/12/27 04:56:19;;;;;;;4.80;3.03;;;-3.30;99.90;;;;;;5073406;28;20873;-50
2020/12/27 04:58:47;;;;;;;2.37;1.90;;;-3.10;99.90;;;;;;5072761;28;20478;-49
2020/12/27 05:01:13;;;;;;;3.17;2.30;;;-3.20;99.90;;;;;;5065274;28;20477;-50
2020/12/27 05:03:40;;;;;;;3.80;2.20;;;-3.20;99.90;;;;;;5073328;28;20496;-50
2020/12/27 05:06:14;;;;;;;3.17;2.10;;;-3.30;99.90;;;;;;5072458;28;21146;-49
2020/12/27 05:08:40;;;;;;;2.80;2.20;;;-3.40;99.90;;;;;;5073037;28;20549;-49
2020/12/27 05:11:07;;;;;;;3.70;2.13;;;-3.40;99.90;;;;;;5073213;28;20474;-49
2020/12/27 05:13:34;;;;;;;3.40;1.87;;;-3.50;99.90;;;;;;5072381;28;20462;-49
2020/12/27 05:16:04;;;;;;;2.80;1.93;;;-3.60;99.90;;;;;;5073163;28;20818;-49
2020/12/27 05:18:31;;;;;;;3.23;1.87;;;-3.50;99.90;;;;;;5072615;28;20484;-50
2020/12/27 05:20:58;;;;;;;2.50;2.03;;;-3.50;99.90;;;;;;5072617;28;20447;-50
2020/12/27 05:23:25;;;;;;;6.00;2.87;;;-3.40;99.90;;;;;;5072040;28;20434;-49
2020/12/27 05:25:52;;;;;;;5.33;2.50;;;-3.40;99.90;;;;;;5064326;28;20549;-49
2020/12/27 05:28:19;;;;;;;3.73;2.03;;;-3.40;99.90;;;;;;5070014;28;20447;-49
2020/12/27 05:30:46;;;;;;;4.00;1.93;;;-3.50;99.90;;;;;;5064819;28;20501;-49
2020/12/27 05:33:14;;;;;;;2.83;2.00;;;-3.40;99.90;;;;;;5072309;28;20509;-49
2020/12/27 05:35:41;;;;;;;2.40;1.90;;;-3.40;99.90;;;;;;5072612;28;20837;-49
2020/12/27 05:38:09;;;;;;;6.33;1.93;;;-3.40;99.90;;;;;;5072701;28;20474;-49
2020/12/27 05:40:37;;;;;;;3.70;1.83;;;-3.30;99.90;;;;;;5072225;28;20442;-49
2020/12/27 05:43:13;;;;;;;3.30;2.07;;;-3.30;99.90;;;;;;5072296;28;20457;-49
2020/12/27 05:45:40;;;;;;;1.87;1.67;;;-3.20;99.90;;;;;;5072273;28;20475;-48
2020/12/27 05:48:07;;;;;;;3.10;1.90;;;-3.20;99.90;;;;;;5072378;28;20451;-49
2020/12/27 05:50:37;;;;;;;4.57;2.37;;;-3.20;99.90;;;;;;5072218;28;20459;-49
2020/12/27 05:53:15;;;;;;;5.17;3.33;;;-3.20;99.90;;;;;;5063906;28;20454;-49
2020/12/27 05:55:45;;;;;;;3.53;2.30;;;-3.20;99.90;;;;;;5072125;28;20939;-49
2020/12/27 05:58:20;;;;;;;4.23;2.73;;;-3.30;99.90;;;;;;5071658;28;20866;-49
2020/12/27 06:00:51;;;;;;;4.87;2.40;;;-3.40;99.90;;;;;;5064136;28;20447;-49
2020/12/27 06:03:20;;;;;;;8.90;3.30;;;-3.50;99.90;;;;;;5061057;28;20433;-49
2020/12/27 06:06:23;;;;;;;4.63;2.33;;;-3.50;99.90;;;;;;5068017;28;20888;-49
2020/12/27 06:09:21;;;;;;;5.57;2.47;;;-3.50;99.90;;;;;;5071039;28;20492;-49
2020/12/27 06:11:54;;;;;;;3.43;2.77;;;-3.30;99.90;;;;;;5067394;28;20450;-49
2020/12/27 06:14:38;;;;;;;4.70;2.60;;;-3.30;99.90;;;;;;5071388;28;20908;-49
2020/12/27 06:17:10;;;;;;;5.83;3.00;;;-3.20;99.90;;;;;;5068295;28;20516;-49
2020/12/27 06:19:57;;;;;;;6.67;3.37;;;-3.20;99.90;;;;;;5066204;28;20479;-49
2020/12/27 06:22:30;;;;;;;6.30;2.80;;;-3.40;99.90;;;;;;5071816;28;20469;-49
2020/12/27 06:25:01;;;;;;;7.20;3.20;;;-3.40;99.90;;;;;;5071653;28;20462;-49
2020/12/27 06:27:29;;;;;;;6.53;2.60;;;-3.60;99.90;;;;;;5071275;28;20979;-49
2020/12/27 06:30:01;;;;;;;9.53;2.80;;;-3.70;99.90;;;;;;5071553;28;20451;-49
2020/12/27 06:32:31;;;;;;;4.73;2.73;;;-3.50;99.90;;;;;;5071506;28;20893;-49
2020/12/27 06:35:03;;;;;;;4.97;2.63;;;-3.60;99.90;;;;;;5070752;28;20847;-49
2020/12/27 06:37:42;;;;;;;3.40;2.60;;;-3.60;99.90;;;;;;5070545;28;20447;-48
2020/12/27 06:40:10;;;;;;;4.73;2.93;;;-3.60;99.90;;;;;;5071047;28;20453;-49
2020/12/27 06:42:37;;;;;;;4.53;2.67;;;-3.60;99.90;;;;;;5071135;28;20986;-49
2020/12/27 06:45:05;;;;;;;7.00;3.43;;;-3.50;99.90;;;;;;5071379;28;20466;-48
2020/12/27 06:47:51;;;;;;;6.30;3.53;;;-3.60;99.90;;;;;;5071099;28;20534;-50
2020/12/27 06:50:19;;;;;;;5.77;3.27;;;-3.60;99.90;;;;;;5065803;28;20442;-49
2020/12/27 06:52:46;;;;;;;5.50;3.27;;;-3.60;99.90;;;;;;5070555;28;20443;-49
2020/12/27 06:55:32;;;;;;;7.77;4.17;;;-3.60;99.90;;;;;;5071033;28;20477;-49
2020/12/27 06:58:15;;;;;;;6.30;3.50;;;-3.60;99.90;;;;;;5069890;28;20874;-49
2020/12/27 07:00:42;;;;;;;4.97;2.83;;;-3.80;99.90;;;;;;5070241;28;20443;-49
2020/12/27 07:03:09;;;;;;;5.73;3.00;;;-3.70;99.90;;;;;;5070971;28;20443;-49
2020/12/27 07:05:37;;;;;;;3.63;2.70;;;-3.70;99.90;;;;;;5070069;28;20462;-48
2020/12/27 07:08:06;;;;;;;6.00;2.90;;;-3.70;99.90;;;;;;5070131;28;20443;-49
2020/12/27 07:10:34;;;;;;;4.70;2.73;;;-3.70;99.90;;;;;;5070552;28;20447;-49
2020/12/27 07:13:05;;;;;;;6.80;3.50;;;-3.60;99.90;;;;;;5070365;28;20936;-49
2020/12/27 07:15:32;;;;;;;6.57;3.23;;;-3.60;99.90;;;;;;5070532;28;20819;-48
2020/12/27 07:18:06;;;;;;;7.73;4.30;;;-3.40;99.90;;;;;;5070306;28;20560;-49
2020/12/27 07:20:33;;;;;;;6.63;4.20;;;-3.50;99.90;;;;;;5070599;28;20511;-49
2020/12/27 07:22:59;;;;;;;6.70;4.00;;;-3.60;99.90;;;;;;5070495;28;20459;-49
2020/12/27 07:25:30;;;;;;;8.70;4.33;;;-3.50;99.90;;;;;;5070335;28;20467;-49
2020/12/27 07:27:58;;;;;;;7.10;4.10;;;-3.50;99.90;;;;;;5070551;28;20885;-49
2020/12/27 07:30:27;;;;;;;3.37;2.87;;;-3.50;99.90;;;;;;5069935;28;20832;-49
2020/12/27 07:32:54;;;;;;;22.80;11.67;;;-3.20;99.90;;;;;;5070660;28;21139;-49
2020/12/27 07:35:23;;;;;;;16.10;6.60;;;-3.20;99.90;;;;;;5069376;28;20478;-49
2020/12/27 07:38:00;;;;;;;4.33;3.00;;;-3.10;99.90;;;;;;5070129;28;20453;-49
2020/12/27 07:40:32;;;;;;;4.37;2.80;;;-3.10;99.90;;;;;;5069993;28;20581;-49
2020/12/27 07:42:59;;;;;;;3.73;2.03;;;-3.20;99.90;;;;;;5070270;28;20987;-49
2020/12/27 07:45:26;;;;;;;4.07;2.30;;;-3.00;99.90;;;;;;5069947;28;20902;-49
2020/12/27 07:47:52;;;;;;;5.53;3.40;;;-2.90;99.90;;;;;;5069927;28;21089;-49
2020/12/27 07:50:20;;;;;;;3.73;3.10;;;-3.10;99.90;;;;;;5069461;28;20983;-49
2020/12/27 07:52:52;;;;;;;3.97;2.77;;;-3.00;99.90;;;;;;5070164;28;20508;-49
2020/12/27 07:55:34;;;;;;;5.00;2.40;;;-3.10;99.90;;;;;;5069877;28;20486;-49
2020/12/27 07:58:02;;;;;;;6.13;2.10;;;-3.10;99.90;;;;;;5070123;28;20489;-48
2020/12/27 08:00:31;;;;;;;6.00;2.40;;;-3.20;99.90;;;;;;5069830;28;20451;-49
2020/12/27 08:03:03;;;;;;;3.23;2.17;;;-3.30;99.90;;;;;;5070107;28;20521;-49
2020/12/27 08:05:29;;;;;;;2.50;2.03;;;-3.20;99.90;;;;;;5069838;28;21006;-49
2020/12/27 08:08:03;;;;;;;4.53;2.27;;;-3.10;99.90;;;;;;5065798;28;20442;-49
2020/12/27 08:10:29;;;;;;;6.67;3.20;;;-2.90;99.90;;;;;;5069406;28;20458;-51
2020/12/27 08:12:59;;;;;;;8.37;3.37;;;-3.00;99.90;;;;;;5069966;28;20451;-49
2020/12/27 08:15:27;;;;;;;4.37;2.90;;;-3.00;99.90;;;;;;5069482;28;20466;-49
2020/12/27 08:17:58;;;;;;;6.20;3.00;;;-3.00;99.90;;;;;;5069885;28;20446;-50
2020/12/27 08:20:26;;;;;;;6.50;3.00;;;-2.90;99.90;;;;;;5051096;28;20449;-50
2020/12/27 08:23:03;;;;;;;5.33;3.20;;;-2.70;99.90;;;;;;5070148;28;20447;-49
2020/12/27 08:25:30;;;;;;;4.90;2.60;;;-2.70;99.90;;;;;;5069550;28;21173;-49
2020/12/27 08:27:59;;;;;;;4.33;2.70;;;-2.40;99.90;;;;;;5069908;28;20454;-49
2020/12/27 08:30:27;;;;;;;9.33;3.50;;;-2.30;99.90;;;;;;5069270;28;20462;-49
2020/12/27 08:33:11;;;;;;;5.20;3.07;;;-2.20;99.90;;;;;;5061733;28;20967;-49
2020/12/27 08:35:39;;;;;;;6.10;3.17;;;-2.10;99.90;;;;;;5066689;28;20485;-49
2020/12/27 08:38:35;;;;;;;4.00;2.30;;;-2.00;99.90;;;;;;5069658;28;20578;-49
2020/12/27 08:41:17;;;;;;;3.57;2.43;;;-2.00;99.90;;;;;;5062876;28;20443;-50
2020/12/27 08:44:10;;;;;;;3.57;2.50;;;-1.80;99.90;;;;;;5069605;28;20478;-49
2020/12/27 08:46:38;;;;;;;3.73;2.50;;;-1.60;99.90;;;;;;5069588;28;20494;-49
2020/12/27 08:49:14;;;;;;;4.80;2.90;;;-1.50;99.90;;;;;;5069110;28;20500;-49
2020/12/27 08:51:45;;;;;;;6.00;2.60;;;-1.40;99.90;;;;;;5069750;28;20453;-49
2020/12/27 08:54:14;;;;;;;6.63;3.10;;;-1.20;99.90;;;;;;5069471;28;20903;-50
2020/12/27 08:56:41;;;;;;;5.40;2.70;;;-1.20;99.90;;;;;;5069499;28;20450;-50
2020/12/27 08:59:13;;;;;;;6.87;4.03;;;-1.20;99.90;;;;;;5070084;28;20475;-50
2020/12/27 09:01:40;;;;;;;8.35;5.75;;;-1.00;99.90;;;;;;5069622;28;20437;-49
2020/12/27 09:04:16;;;;;;;10.10;6.30;;;-1.00;99.90;;;;;;5072231;28;20581;-50
2020/12/27 09:06:51;;;;;;;3.47;2.63;;;-0.80;99.90;;;;;;5072177;28;20466;-49
2020/12/27 09:09:19;;;;;;;5.13;2.80;;;-0.70;99.90;;;;;;5071304;28;20447;-49
2020/12/27 09:11:46;;;;;;;5.33;2.50;;;-0.90;99.90;;;;;;5072487;28;20532;-50
2020/12/27 09:14:32;;;;;;;5.40;2.67;;;-0.70;99.90;;;;;;5072738;28;20526;-49
2020/12/27 09:17:02;;;;;;;3.17;2.53;;;-0.50;99.90;;;;;;5071517;28;20498;-49
2020/12/27 09:19:33;;;;;;;3.60;2.47;;;-0.20;99.90;;;;;;5072190;28;20480;-49
2020/12/27 09:22:03;;;;;;;2.80;2.00;;;-0.50;99.90;;;;;;5072295;28;20534;-50
2020/12/27 09:24:29;;;;;;;2.90;2.33;;;-0.50;99.90;;;;;;5072161;28;21180;-49
2020/12/27 09:27:06;;;;;;;3.90;2.50;;;-0.70;99.90;;;;;;5072285;28;20497;-49
2020/12/27 09:29:33;;;;;;;5.77;2.73;;;-0.60;99.90;;;;;;5072349;28;20527;-50
2020/12/27 09:32:12;;;;;;;3.90;2.40;;;-0.50;99.90;;;;;;5072077;28;20499;-49
2020/12/27 09:34:39;;;;;;;2.60;2.40;;;-0.40;99.90;;;;;;5072377;28;20463;-49
2020/12/27 09:37:16;;;;;;;5.67;2.60;;;-0.40;99.90;;;;;;5072092;28;20453;-49
2020/12/27 09:39:44;;;;;;;3.70;2.37;;;-0.30;99.90;;;;;;5072244;28;20483;-50
2020/12/27 09:42:23;;;;;;;3.60;2.80;;;-0.40;99.90;;;;;;5071891;28;20451;-49
2020/12/27 09:44:51;;;;;;;3.47;2.47;;;-0.50;99.90;;;;;;5071220;28;20475;-49
2020/12/27 09:47:25;;;;;;;3.80;2.57;;;-0.50;99.90;;;;;;5071725;28;20961;-49
2020/12/27 09:50:04;;;;;;;5.50;3.00;;;-0.50;99.90;;;;;;5071036;28;20455;-49
2020/12/27 09:52:31;;;;;;;6.17;2.80;;;-0.30;99.90;;;;;;5070740;28;20444;-49
2020/12/27 09:54:57;;;;;;;4.07;2.80;;;-0.40;99.90;;;;;;5071219;28;20845;-49
2020/12/27 09:57:27;;;;;;;4.10;2.80;;;-0.40;99.90;;;;;;5061914;28;20454;-50
2020/12/27 09:59:54;;;;;;;4.47;2.70;;;-0.40;99.90;;;;;;5069859;28;20500;-50
2020/12/27 10:02:22;;;;;;;6.77;3.87;;;-0.30;99.90;;;;;;5068468;28;20447;-49
2020/12/27 10:04:48;;;;;;;4.90;2.70;;;-0.10;99.90;;;;;;5070666;28;20471;-50
2020/12/27 10:07:15;;;;;;;3.20;2.77;;;0.00;99.90;;;;;;5071035;28;21032;-49
2020/12/27 10:09:42;;;;;;;6.23;2.90;;;0.10;99.90;;;;;;5070775;28;20444;-49
2020/12/27 10:12:08;;;;;;;5.60;2.90;;;0.00;99.90;;;;;;5070900;28;20450;-49
2020/12/27 10:14:35;;;;;;;6.57;3.10;;;0.10;99.90;;;;;;5071433;28;20465;-49
2020/12/27 10:17:02;;;;;;;4.20;2.60;;;0.20;99.90;;;;;;5071019;28;21156;-49
2020/12/27 10:19:30;;;;;;;4.00;2.33;;;0.30;99.90;;;;;;5071309;28;20512;-49
2020/12/27 10:21:57;;;;;;;4.90;2.10;;;0.60;99.90;;;;;;5071568;28;20446;-49
2020/12/27 10:24:26;;;;;;;7.77;2.63;;;0.60;99.90;;;;;;5071032;28;20482;-49
2020/12/27 10:26:54;;;;;;;3.00;2.20;;;0.40;99.90;;;;;;5071147;28;20456;-49
2020/12/27 10:29:21;;;;;;;4.80;2.40;;;0.40;99.90;;;;;;5071038;28;20972;-49
2020/12/27 10:31:50;;;;;;;5.30;2.50;;;0.30;99.90;;;;;;5071296;28;20450;-50
2020/12/27 10:34:18;;;;;;;6.40;2.57;;;0.50;99.90;;;;;;5070345;28;20484;-49
2020/12/27 10:36:45;;;;;;;5.07;2.63;;;0.60;99.90;;;;;;5071159;28;20453;-49
2020/12/27 10:39:12;;;;;;;3.97;2.63;;;0.80;99.90;;;;;;5094842;22;20608;-56
2020/12/27 10:41:39;;;;;;;3.57;2.60;;;0.70;99.90;;;;;;5070586;28;20449;-55
2020/12/27 10:44:08;;;;;;;12.50;2.43;;;0.80;99.90;;;;;;5071094;28;20532;-55
2020/12/27 10:46:35;;;;;;;5.90;3.40;;;0.70;99.90;;;;;;5070896;28;20843;-55
2020/12/27 10:49:05;;;;;;;4.73;3.30;;;0.80;99.90;;;;;;5070163;28;20461;-54
2020/12/27 10:51:36;;;;;;;5.90;3.17;;;0.60;99.90;;;;;;5069832;28;20939;-54
2020/12/27 10:54:06;;;;;;;7.40;3.27;;;0.70;99.90;;;;;;5065957;28;20882;-55
2020/12/27 10:56:33;;;;;;;4.20;3.00;;;0.80;99.90;;;;;;5073494;28;20956;-55
2020/12/27 10:59:03;;;;;;;6.00;3.67;;;1.10;99.90;;;;;;5071218;28;21014;-55
2020/12/27 11:01:30;;;;;;;6.50;3.53;;;1.20;99.90;;;;;;5071220;28;20447;-55
2020/12/27 11:03:56;;;;;;;5.33;3.30;;;1.20;99.90;;;;;;5070710;28;20874;-55
2020/12/27 11:06:29;;;;;;;7.03;3.60;;;1.20;99.90;;;;;;5072256;28;20499;-55
2020/12/27 11:08:56;;;;;;;3.70;2.50;;;1.10;99.90;;;;;;5064346;28;20439;-55
2020/12/27 11:11:23;;;;;;;2.40;2.10;;;1.20;99.90;;;;;;5071888;28;20535;-55
2020/12/27 11:13:49;;;;;;;3.50;2.23;;;1.40;99.90;;;;;;5074319;28;20450;-55
2020/12/27 11:16:16;;;;;;;2.70;2.10;;;1.30;99.90;;;;;;5072366;28;20457;-55
2020/12/27 11:18:43;;;;;;;3.40;2.40;;;1.10;99.90;;;;;;5075136;28;20543;-55
2020/12/27 11:21:11;;;;;;;5.63;3.90;;;1.20;99.90;;;;;;5069954;28;20503;-55
2020/12/27 11:23:38;;;;;;;6.30;3.53;;;0.70;99.90;;;;;;5069341;28;20453;-55
2020/12/27 11:26:05;;;;;;;4.43;2.80;;;0.90;99.90;;;;;;5070080;28;20445;-55
2020/12/27 11:28:32;;;;;;;4.47;2.63;;;0.80;99.90;;;;;;5070224;28;20452;-55
2020/12/27 11:30:58;;;;;;;4.83;2.70;;;0.80;99.90;;;;;;5065712;28;20474;-55
2020/12/27 11:33:25;;;;;;;3.37;2.17;;;1.10;99.90;;;;;;5070747;28;20454;-56
2020/12/27 11:35:51;;;;;;;4.10;2.57;;;1.30;99.90;;;;;;5070166;28;20484;-56
2020/12/27 11:38:18;;;;;;;3.07;2.57;;;1.40;99.90;;;;;;5070166;28;20452;-55
2020/12/27 11:40:45;;;;;;;4.80;2.87;;;1.70;99.90;;;;;;5068932;28;20481;-56
2020/12/27 11:43:12;;;;;;;5.13;2.80;;;1.80;99.90;;;;;;5070174;28;20481;-55
2020/12/27 11:45:38;;;;;;;5.53;2.80;;;1.80;99.90;;;;;;5069901;28;20454;-56
2020/12/27 11:48:05;;;;;;;5.83;2.97;;;1.90;99.90;;;;;;5069816;28;20971;-55
2020/12/27 11:50:31;;;;;;;3.60;2.87;;;1.90;99.90;;;;;;5069967;28;20486;-56
2020/12/27 11:52:58;;;;;;;5.70;3.00;;;1.80;99.90;;;;;;5069079;28;20454;-56
2020/12/27 11:55:24;;;;;;;7.20;3.43;;;1.60;99.90;;;;;;5070255;28;20450;-55
2020/12/27 11:57:52;;;;;;;5.80;2.93;;;1.50;99.90;;;;;;5067155;28;20458;-55
2020/12/27 12:00:20;;;;;;;4.70;2.90;;;1.30;99.90;;;;;;5069576;28;20528;-55
2020/12/27 12:02:47;;;;;;;4.53;3.13;;;1.30;99.90;;;;;;5069349;28;21024;-55
2020/12/27 12:05:14;;;;;;;3.80;2.63;;;1.30;99.90;;;;;;5062377;28;20606;-56
2020/12/27 12:07:41;;;;;;;4.00;3.13;;;1.30;99.90;;;;;;5069850;28;21003;-56
2020/12/27 12:10:07;;;;;;;5.07;2.90;;;1.40;99.90;;;;;;5069000;28;20539;-55
2020/12/27 12:12:34;;;;;;;4.50;3.30;;;1.40;99.90;;;;;;5068248;28;20473;-55
2020/12/27 12:15:00;;;;;;;4.27;2.80;;;1.60;99.90;;;;;;5069543;28;20963;-55
2020/12/27 12:17:28;;;;;;;3.30;2.80;;;1.70;99.90;;;;;;5070285;28;20461;-55
2020/12/27 12:19:54;;;;;;;5.30;2.70;;;1.60;99.90;;;;;;5069377;28;20492;-55
2020/12/27 12:22:21;;;;;;;3.40;2.97;;;1.40;99.90;;;;;;5069896;28;20442;-55
2020/12/27 12:24:48;;;;;;;5.33;2.73;;;1.50;99.90;;;;;;5069348;28;20528;-54
2020/12/27 12:27:14;;;;;;;3.57;2.90;;;1.40;99.90;;;;;;5066905;28;20513;-55
2020/12/27 12:29:41;;;;;;;3.90;2.77;;;1.30;99.90;;;;;;5068685;28;20459;-55
2020/12/27 12:32:07;;;;;;;6.30;3.30;;;1.30;99.90;;;;;;5069724;28;20462;-55
2020/12/27 12:34:35;;;;;;;8.63;3.80;;;1.50;99.90;;;;;;5072464;28;20447;-55
2020/12/27 12:37:01;;;;;;;12.20;3.80;;;1.60;99.90;;;;;;5073019;28;20450;-54
2020/12/27 12:39:28;;;;;;;5.03;3.43;;;1.60;99.90;;;;;;5073289;28;20485;-55
2020/12/27 12:41:57;;;;;;;8.93;5.10;;;1.80;99.90;;;;;;5073320;28;20450;-55
2020/12/27 12:44:23;;;;;;;4.00;3.43;;;1.70;99.90;;;;;;5073304;28;20882;-55
2020/12/27 12:46:50;;;;;;;12.40;9.87;;;1.70;99.90;;;;;;5070166;28;20450;-55
2020/12/27 12:49:17;;;;;;;5.40;3.43;;;1.70;99.90;;;;;;5073085;28;20466;-54
2020/12/27 12:51:44;;;;;;;5.30;3.27;;;1.60;99.90;;;;;;5073514;28;20454;-54
2020/12/27 12:54:11;;;;;;;5.10;3.37;;;1.70;99.90;;;;;;5073207;28;20533;-55
2020/12/27 12:56:38;;;;;;;9.00;3.70;;;1.70;99.90;;;;;;5073801;28;20533;-54